createdAt,value
2022-08-25T00:00:11.554Z,19.88
2022-08-25T00:02:38.235Z,19.90
2022-08-25T00:05:05.617Z,19.89
2022-08-25T00:07:33.501Z,19.86
2022-08-25T00:10:00.423Z,19.85
2022-08-25T00:12:27.118Z,19.91
2022-08-25T00:14:53.809Z,19.92
2022-08-25T00:17:20.437Z,19.90
2022-08-25T00:19:47.051Z,19.86
2022-08-25T00:22:13.680Z,19.84
2022-08-25T00:24:40.306Z,19.83
2022-08-25T00:27:06.893Z,19.78
2022-08-25T00:29:34.157Z,19.73
2022-08-25T00:32:01.304Z,19.65
2022-08-25T00:34:34.489Z,19.67
2022-08-25T00:37:02.451Z,19.65
2022-08-25T00:39:29.370Z,19.66
2022-08-25T00:41:57.839Z,19.69
2022-08-25T00:44:27.321Z,19.63
2022-08-25T00:46:56.904Z,19.63
2022-08-25T00:49:32.148Z,19.63
2022-08-25T00:52:03.170Z,19.67
2022-08-25T00:54:49.994Z,19.71
2022-08-25T00:57:22.111Z,19.64
2022-08-25T01:00:01.991Z,19.58
2022-08-25T01:02:28.644Z,19.51
2022-08-25T01:04:55.310Z,19.51
2022-08-25T01:07:24.056Z,19.49
2022-08-25T01:09:52.600Z,19.46
2022-08-25T01:12:20.047Z,19.44
2022-08-25T01:14:46.765Z,19.40
2022-08-25T01:17:14.865Z,19.39
2022-08-25T01:19:42.074Z,19.37
2022-08-25T01:22:12.131Z,19.42
2022-08-25T01:24:47.191Z,19.45
2022-08-25T01:27:14.018Z,19.47
2022-08-25T01:29:45.429Z,19.53
2022-08-25T01:32:14.627Z,19.53
2022-08-25T01:34:44.343Z,19.55
2022-08-25T01:37:13.721Z,19.54
2022-08-25T01:39:41.783Z,19.35
2022-08-25T01:42:11.441Z,19.27
2022-08-25T01:44:41.929Z,19.37
2022-08-25T01:47:09.371Z,19.39
2022-08-25T01:49:36.410Z,19.40
2022-08-25T01:52:05.759Z,19.30
2022-08-25T01:54:32.690Z,19.30
2022-08-25T01:56:59.578Z,19.29
2022-08-25T01:59:27.126Z,19.26
2022-08-25T02:01:59.739Z,19.14
2022-08-25T02:04:32.499Z,19.15
2022-08-25T02:07:05.303Z,19.12
2022-08-25T02:09:32.372Z,19.11
2022-08-25T02:11:59.365Z,19.09
2022-08-25T02:14:26.592Z,19.14
2022-08-25T02:16:54.388Z,19.15
2022-08-25T02:19:23.512Z,19.19
2022-08-25T02:21:50.354Z,19.12
2022-08-25T02:24:17.539Z,19.04
2022-08-25T02:26:44.401Z,19.00
2022-08-25T02:29:11.587Z,19.00
2022-08-25T02:31:39.266Z,18.97
2022-08-25T02:34:07.101Z,18.98
2022-08-25T02:36:34.614Z,19.00
2022-08-25T02:39:01.476Z,19.07
2022-08-25T02:41:31.306Z,18.97
2022-08-25T02:44:00.433Z,18.91
2022-08-25T02:46:27.925Z,19.00
2022-08-25T02:48:55.322Z,18.88
2022-08-25T02:51:24.419Z,18.87
2022-08-25T02:53:51.679Z,18.87
2022-08-25T02:56:19.880Z,18.88
2022-08-25T02:58:47.726Z,18.89
2022-08-25T03:01:16.479Z,18.92
2022-08-25T03:03:45.871Z,18.83
2022-08-25T03:06:15.256Z,18.82
2022-08-25T03:08:43.306Z,18.78
2022-08-25T03:11:10.508Z,18.72
2022-08-25T03:13:37.751Z,18.62
2022-08-25T03:16:11.449Z,18.58
2022-08-25T03:18:39.990Z,18.52
2022-08-25T03:21:07.504Z,18.54
2022-08-25T03:23:34.165Z,18.54
2022-08-25T03:26:19.362Z,18.54
2022-08-25T03:28:46.018Z,18.53
2022-08-25T03:31:12.653Z,18.55
2022-08-25T03:33:40.163Z,18.49
2022-08-25T03:36:08.696Z,18.50
2022-08-25T03:38:38.442Z,18.49
2022-08-25T03:41:15.017Z,18.46
2022-08-25T03:43:41.719Z,18.45
2022-08-25T03:46:08.407Z,18.46
2022-08-25T03:48:35.143Z,18.42
2022-08-25T03:51:01.750Z,18.45
2022-08-25T03:53:28.450Z,18.40
2022-08-25T03:55:55.057Z,18.45
2022-08-25T03:58:21.916Z,18.39
2022-08-25T04:00:48.601Z,18.47
2022-08-25T04:03:15.282Z,18.54
2022-08-25T04:05:42.988Z,18.54
2022-08-25T04:08:09.620Z,18.54
2022-08-25T04:10:37.532Z,18.52
2022-08-25T04:13:05.443Z,18.58
2022-08-25T04:15:32.085Z,18.65
2022-08-25T04:17:59.168Z,18.61
2022-08-25T04:20:26.003Z,18.57
2022-08-25T04:22:52.627Z,18.65
2022-08-25T04:25:19.250Z,18.57
2022-08-25T04:27:45.906Z,18.70
2022-08-25T04:30:13.428Z,18.75
2022-08-25T04:32:40.103Z,18.72
2022-08-25T04:35:07.594Z,18.64
2022-08-25T04:37:34.452Z,18.62
2022-08-25T04:40:01.505Z,18.51
2022-08-25T04:42:28.522Z,18.54
2022-08-25T04:44:55.227Z,18.40
2022-08-25T04:47:22.587Z,18.43
2022-08-25T04:49:49.350Z,18.42
2022-08-25T04:52:16.005Z,18.56
2022-08-25T04:54:43.963Z,18.70
2022-08-25T04:57:11.085Z,18.66
2022-08-25T04:59:37.787Z,18.68
2022-08-25T05:02:06.672Z,18.84
2022-08-25T05:04:35.265Z,18.87
2022-08-25T05:07:03.248Z,19.03
2022-08-25T05:09:32.343Z,19.03
2022-08-25T05:12:00.763Z,19.17
2022-08-25T05:14:27.470Z,19.28
2022-08-25T05:16:58.101Z,19.22
2022-08-25T05:19:25.298Z,19.46
2022-08-25T05:21:52.654Z,19.57
2022-08-25T05:24:20.328Z,19.61
2022-08-25T05:26:47.184Z,19.74
2022-08-25T05:29:14.543Z,19.86
2022-08-25T05:31:45.940Z,19.84
2022-08-25T05:34:15.163Z,19.94
2022-08-25T05:36:43.523Z,20.05
2022-08-25T05:39:11.060Z,20.12
2022-08-25T05:41:38.294Z,20.38
2022-08-25T05:44:05.032Z,20.35
2022-08-25T05:46:31.920Z,20.42
2022-08-25T05:48:59.260Z,20.54
2022-08-25T05:51:26.655Z,20.65
2022-08-25T05:53:53.397Z,20.75
2022-08-25T05:56:20.266Z,20.80
2022-08-25T05:58:47.084Z,20.68
2022-08-25T06:01:45.522Z,20.67
2022-08-25T06:04:13.390Z,20.67
2022-08-25T06:06:40.682Z,20.69
2022-08-25T06:09:09.404Z,20.84
2022-08-25T06:11:38.118Z,20.98
2022-08-25T06:14:04.846Z,21.01
2022-08-25T06:16:31.749Z,21.17
2022-08-25T06:18:58.498Z,21.22
2022-08-25T06:21:25.342Z,21.27
2022-08-25T06:23:52.750Z,21.31
2022-08-25T06:26:21.108Z,21.66
2022-08-25T06:28:51.595Z,22.02
2022-08-25T06:31:19.590Z,22.66
2022-08-25T06:33:46.660Z,23.33
2022-08-25T06:36:13.982Z,24.09
2022-08-25T06:38:40.800Z,25.72
2022-08-25T06:41:08.793Z,26.37
2022-08-25T06:43:36.751Z,26.74
2022-08-25T06:46:15.785Z,27.21
2022-08-25T06:48:43.003Z,27.27
2022-08-25T06:51:14.113Z,27.32
2022-08-25T06:53:41.603Z,27.85
2022-08-25T06:56:08.538Z,28.48
2022-08-25T06:58:35.901Z,28.65
2022-08-25T07:01:14.994Z,29.33
2022-08-25T07:03:46.277Z,29.48
2022-08-25T07:06:14.722Z,28.92
2022-08-25T07:08:46.104Z,28.24
2022-08-25T07:11:16.603Z,28.44
2022-08-25T07:13:45.572Z,28.13
2022-08-25T07:16:15.378Z,28.12
2022-08-25T07:18:42.522Z,28.26
2022-08-25T07:21:12.416Z,28.86
2022-08-25T07:23:40.103Z,28.69
2022-08-25T07:26:36.729Z,28.54
2022-08-25T07:29:20.186Z,28.50
2022-08-25T07:31:59.197Z,28.17
2022-08-25T07:34:44.493Z,28.29
2022-08-25T07:37:32.321Z,27.83
2022-08-25T07:40:07.300Z,28.17
2022-08-25T07:42:34.064Z,27.89
2022-08-25T07:45:00.644Z,28.13
2022-08-25T07:47:27.281Z,28.14
2022-08-25T07:49:53.903Z,28.00
2022-08-25T07:52:21.392Z,27.34
2022-08-25T07:54:47.992Z,27.50
2022-08-25T07:57:14.633Z,27.56
2022-08-25T07:59:42.788Z,27.12
2022-08-25T08:02:18.185Z,27.23
2022-08-25T08:04:50.090Z,26.87
2022-08-25T08:07:23.284Z,26.90
2022-08-25T08:10:04.738Z,26.73
2022-08-25T08:12:38.221Z,26.51
2022-08-25T08:15:10.153Z,26.81
2022-08-25T08:17:37.945Z,26.48
2022-08-25T08:20:09.089Z,26.50
2022-08-25T08:22:41.485Z,26.64
2022-08-25T08:25:10.551Z,26.92
2022-08-25T08:27:38.066Z,26.43
2022-08-25T08:30:06.592Z,26.25
2022-08-25T08:32:59.597Z,26.22
2022-08-25T08:35:19.885Z,26.44
2022-08-25T08:37:46.752Z,26.29
2022-08-25T08:40:16.004Z,26.42
2022-08-25T08:42:56.494Z,26.52
2022-08-25T08:45:35.671Z,26.32
2022-08-25T08:48:17.376Z,26.68
2022-08-25T08:51:01.758Z,26.52
2022-08-25T08:54:00.079Z,27.01
2022-08-25T08:56:34.810Z,27.44
2022-08-25T08:59:19.605Z,27.80
2022-08-25T09:01:54.299Z,28.06
2022-08-25T09:04:45.368Z,28.21
2022-08-25T09:07:18.966Z,28.41
2022-08-25T09:09:48.049Z,28.48
2022-08-25T09:12:38.143Z,28.36
2022-08-25T09:16:09.835Z,28.65
2022-08-25T09:19:07.028Z,28.27
2022-08-25T09:21:47.109Z,28.47
2022-08-25T09:24:33.104Z,28.42
2022-08-25T09:27:03.308Z,28.49
2022-08-25T09:29:46.778Z,28.06
2022-08-25T09:32:15.795Z,27.83
2022-08-25T09:34:52.806Z,27.86
2022-08-25T09:37:20.496Z,27.82
2022-08-25T09:39:47.258Z,28.13
2022-08-25T09:42:13.989Z,28.40
2022-08-25T09:44:41.424Z,28.58
2022-08-25T09:47:28.302Z,28.23
2022-08-25T09:50:04.388Z,28.49
2022-08-25T09:52:34.601Z,28.69
2022-08-25T09:55:16.268Z,28.82
2022-08-25T09:57:42.830Z,28.60
2022-08-25T10:00:23.743Z,28.66
2022-08-25T10:03:22.692Z,28.73
2022-08-25T10:06:13.314Z,28.31
2022-08-25T10:08:43.343Z,28.29
2022-08-25T10:11:15.237Z,28.68
2022-08-25T10:13:46.964Z,29.06
2022-08-25T10:16:29.648Z,29.06
2022-08-25T10:19:21.443Z,29.40
2022-08-25T10:22:02.211Z,29.17
2022-08-25T10:24:29.247Z,29.32
2022-08-25T10:27:03.458Z,29.44
2022-08-25T10:30:08.431Z,29.54
2022-08-25T10:32:53.607Z,29.46
2022-08-25T10:35:51.639Z,29.55
2022-08-25T10:38:36.241Z,29.42
2022-08-25T10:41:24.954Z,29.37
2022-08-25T10:44:31.826Z,29.29
2022-08-25T10:47:23.239Z,29.33
2022-08-25T10:49:56.016Z,29.33
2022-08-25T10:52:38.498Z,29.35
2022-08-25T10:55:24.908Z,29.40
2022-08-25T10:58:26.850Z,29.55
2022-08-25T11:01:19.450Z,29.79
2022-08-25T11:04:11.437Z,29.78
2022-08-25T11:06:40.707Z,29.86
2022-08-25T11:09:16.063Z,29.67
2022-08-25T11:11:50.295Z,29.82
2022-08-25T11:14:23.514Z,29.85
2022-08-25T11:17:02.600Z,29.82
2022-08-25T11:19:32.817Z,29.83
2022-08-25T11:22:32.824Z,29.71
2022-08-25T11:25:21.769Z,29.92
2022-08-25T11:28:06.934Z,29.87
2022-08-25T11:30:33.818Z,29.52
2022-08-25T11:33:00.805Z,29.41
2022-08-25T11:35:36.218Z,29.62
2022-08-25T11:38:28.971Z,29.93
2022-08-25T11:41:21.503Z,30.14
2022-08-25T11:44:00.095Z,30.32
2022-08-25T11:46:59.861Z,30.49
2022-08-25T11:49:50.166Z,30.56
2022-08-25T11:52:36.088Z,30.72
2022-08-25T11:55:15.212Z,30.64
2022-08-25T11:57:43.927Z,30.73
2022-08-25T12:00:17.492Z,30.61
2022-08-25T12:02:50.540Z,30.48
2022-08-25T12:05:17.163Z,30.19
2022-08-25T12:08:12.648Z,30.37
2022-08-25T12:10:54.289Z,30.47
2022-08-25T12:13:41.518Z,29.92
2022-08-25T12:16:36.951Z,29.78
2022-08-25T12:19:24.594Z,30.04
2022-08-25T12:21:53.857Z,30.05
2022-08-25T12:24:47.557Z,30.24
2022-08-25T12:27:38.439Z,30.03
2022-08-25T12:30:21.856Z,30.05
2022-08-25T12:33:10.068Z,30.18
2022-08-25T12:35:53.613Z,30.33
2022-08-25T12:38:46.378Z,30.39
2022-08-25T12:41:30.936Z,30.48
2022-08-25T12:44:34.954Z,30.55
2022-08-25T12:47:31.974Z,30.36
2022-08-25T12:50:32.717Z,30.37
2022-08-25T12:53:24.597Z,30.45
2022-08-25T12:56:02.790Z,30.64
2022-08-25T12:58:56.606Z,30.77
2022-08-25T13:01:43.598Z,30.78
2022-08-25T13:04:35.054Z,30.77
2022-08-25T13:07:13.620Z,30.81
2022-08-25T13:09:58.870Z,30.87
2022-08-25T13:12:36.902Z,30.91
2022-08-25T13:15:04.435Z,30.94
2022-08-25T13:17:34.982Z,30.96
2022-08-25T13:20:19.476Z,30.82
2022-08-25T13:22:50.301Z,30.84
2022-08-25T13:25:23.287Z,30.80
2022-08-25T13:28:03.210Z,30.85
2022-08-25T13:30:33.672Z,30.88
2022-08-25T13:33:15.233Z,30.79
2022-08-25T13:35:49.374Z,30.82
2022-08-25T13:38:19.640Z,30.60
2022-08-25T13:40:46.389Z,30.63
2022-08-25T13:43:14.993Z,30.74
2022-08-25T13:45:48.142Z,30.84
2022-08-25T13:48:49.445Z,30.87
2022-08-25T13:51:23.812Z,30.96
2022-08-25T13:54:12.009Z,30.93
2022-08-25T13:56:42.396Z,30.71
2022-08-25T13:59:26.917Z,30.52
2022-08-25T14:01:55.260Z,30.62
2022-08-25T14:04:46.817Z,30.68
2022-08-25T14:07:21.420Z,30.65
2022-08-25T14:09:52.223Z,30.71
2022-08-25T14:15:17.819Z,30.77
2022-08-25T14:18:31.012Z,30.75
2022-08-25T14:21:11.459Z,30.65
2022-08-25T14:23:39.358Z,30.53
2022-08-25T14:26:06.551Z,30.35
2022-08-25T14:28:34.786Z,30.35
2022-08-25T14:31:25.394Z,30.35
2022-08-25T14:33:57.883Z,30.30
2022-08-25T14:36:26.552Z,30.14
2022-08-25T14:38:56.796Z,30.20
2022-08-25T14:41:24.493Z,30.21
2022-08-25T14:43:51.094Z,30.27
2022-08-25T14:46:24.190Z,30.26
2022-08-25T14:48:55.555Z,30.23
2022-08-25T14:51:24.445Z,30.25
2022-08-25T14:53:53.896Z,30.29
2022-08-25T14:56:20.565Z,30.22
2022-08-25T14:58:51.108Z,30.22
2022-08-25T15:01:28.992Z,30.24
2022-08-25T15:04:10.658Z,30.24
2022-08-25T15:06:39.253Z,30.16
2022-08-25T15:09:11.452Z,30.17
2022-08-25T15:11:42.630Z,30.14
2022-08-25T15:14:11.041Z,30.13
2022-08-25T15:16:45.253Z,30.14
2022-08-25T15:19:15.991Z,30.12
2022-08-25T15:21:44.811Z,30.10
2022-08-25T15:24:12.628Z,30.08
2022-08-25T15:29:20.960Z,30.03
2022-08-25T15:31:48.017Z,30.02
2022-08-25T15:34:15.712Z,30.03
2022-08-25T15:36:42.927Z,29.99
2022-08-25T15:39:10.193Z,29.95
2022-08-25T15:41:37.876Z,29.92
2022-08-25T15:44:06.452Z,29.91
2022-08-25T15:46:35.960Z,29.89
2022-08-25T15:49:02.901Z,29.90
2022-08-25T15:51:29.712Z,29.89
2022-08-25T15:53:57.685Z,29.84
2022-08-25T15:56:26.894Z,29.77
2022-08-25T15:58:55.455Z,29.77
2022-08-25T16:01:25.185Z,29.78
2022-08-25T16:03:52.633Z,29.80
2022-08-25T16:06:19.557Z,29.76
2022-08-25T16:08:46.245Z,29.74
2022-08-25T16:11:18.877Z,29.71
2022-08-25T16:13:49.200Z,29.67
2022-08-25T16:16:17.685Z,29.63
2022-08-25T16:18:44.870Z,29.57
2022-08-25T16:21:15.467Z,29.56
2022-08-25T16:23:43.151Z,29.56
2022-08-25T16:26:11.099Z,29.56
2022-08-25T16:28:43.795Z,29.56
2022-08-25T16:31:12.441Z,29.49
2022-08-25T16:36:14.622Z,29.36
2022-08-25T16:38:42.554Z,29.27
2022-08-25T16:41:20.089Z,29.22
2022-08-25T16:43:47.550Z,29.18
2022-08-25T16:46:17.356Z,29.16
2022-08-25T16:48:44.548Z,29.07
2022-08-25T16:51:14.723Z,29.04
2022-08-25T16:54:01.231Z,28.97
2022-08-25T16:56:28.447Z,28.90
2022-08-25T16:58:58.096Z,28.81
2022-08-25T17:01:25.844Z,28.75
2022-08-25T17:03:54.074Z,28.61
2022-08-25T17:06:23.885Z,28.53
2022-08-25T17:08:51.399Z,28.43
2022-08-25T17:11:20.813Z,28.38
2022-08-25T17:13:51.321Z,28.31
2022-08-25T17:16:21.163Z,28.21
2022-08-25T17:18:48.811Z,28.11
2022-08-25T17:21:23.846Z,28.05
2022-08-25T17:23:51.559Z,27.97
2022-08-25T17:26:18.443Z,27.90
2022-08-25T17:28:45.748Z,27.80
2022-08-25T17:31:14.422Z,27.74
2022-08-25T17:33:41.861Z,27.65
2022-08-25T17:36:09.194Z,27.54
2022-08-25T17:38:36.355Z,27.46
2022-08-25T17:41:08.524Z,27.37
2022-08-25T17:43:38.347Z,27.27
2022-08-25T17:46:06.026Z,27.16
2022-08-25T17:48:33.375Z,27.04
2022-08-25T17:51:01.338Z,26.96
2022-08-25T17:53:28.641Z,26.86
2022-08-25T17:56:02.312Z,26.79
2022-08-25T17:58:30.627Z,26.73
2022-08-25T18:00:58.577Z,26.73
2022-08-25T18:03:26.829Z,26.68
2022-08-25T18:05:54.286Z,26.62
2022-08-25T18:08:20.970Z,26.26
2022-08-25T18:10:58.818Z,26.00
2022-08-25T18:13:26.769Z,25.86
2022-08-25T18:15:55.128Z,25.76
2022-08-25T18:18:21.845Z,25.61
2022-08-25T18:20:51.525Z,25.68
2022-08-25T18:23:19.875Z,25.56
2022-08-25T18:25:48.971Z,25.52
2022-08-25T18:28:16.167Z,25.40
2022-08-25T18:30:43.216Z,25.38
2022-08-25T18:33:10.636Z,25.34
2022-08-25T18:35:37.995Z,25.22
2022-08-25T18:38:24.330Z,25.18
2022-08-25T18:41:02.265Z,25.12
2022-08-25T18:43:31.912Z,25.05
2022-08-25T18:46:03.515Z,24.99
2022-08-25T18:48:31.916Z,24.93
2022-08-25T18:51:00.621Z,24.86
2022-08-25T18:53:30.699Z,24.78
2022-08-25T18:56:16.130Z,24.70
2022-08-25T18:58:42.806Z,24.67
2022-08-25T19:01:13.594Z,24.67
2022-08-25T19:03:40.371Z,24.62
2022-08-25T19:06:07.188Z,24.63
2022-08-25T19:08:34.245Z,24.64
2022-08-25T19:11:01.018Z,24.58
2022-08-25T19:13:27.708Z,24.58
2022-08-25T19:15:54.470Z,24.56
2022-08-25T19:18:26.200Z,24.51
2022-08-25T19:20:56.036Z,24.49
2022-08-25T19:23:22.684Z,24.43
2022-08-25T19:25:49.379Z,24.35
2022-08-25T19:28:16.295Z,24.32
2022-08-25T19:30:50.090Z,24.26
2022-08-25T19:33:42.366Z,24.25
2022-08-25T19:36:08.462Z,24.21
2022-08-25T19:38:36.988Z,24.17
2022-08-25T19:41:10.633Z,24.15
2022-08-25T19:43:50.535Z,24.14
2022-08-25T19:46:33.353Z,24.13
2022-08-25T19:49:08.921Z,24.12
2022-08-25T19:51:44.121Z,24.13
2022-08-25T19:54:17.483Z,24.12
2022-08-25T19:56:54.385Z,24.17
2022-08-25T19:59:40.435Z,24.03
2022-08-25T20:02:15.527Z,23.94
2022-08-25T20:04:49.452Z,23.88
2022-08-25T20:07:18.087Z,23.79
2022-08-25T20:09:45.213Z,23.75
2022-08-25T20:12:12.272Z,23.71
2022-08-25T20:14:39.811Z,23.69
2022-08-25T20:17:23.131Z,23.62
2022-08-25T20:19:52.040Z,23.62
2022-08-25T20:22:19.929Z,23.66
2022-08-25T20:24:49.448Z,23.61
2022-08-25T20:27:23.335Z,23.56
2022-08-25T20:29:52.102Z,23.65
2022-08-25T20:32:19.789Z,23.55
2022-08-25T20:34:47.074Z,23.43
2022-08-25T20:37:13.771Z,23.45
2022-08-25T20:39:41.460Z,23.32
2022-08-25T20:42:08.622Z,23.17
2022-08-25T20:44:41.429Z,23.16
2022-08-25T20:47:10.538Z,23.10
2022-08-25T20:49:39.299Z,23.03
2022-08-25T20:52:07.167Z,22.99
2022-08-25T20:54:33.960Z,22.96
2022-08-25T20:57:01.063Z,22.90
2022-08-25T20:59:29.534Z,22.89
2022-08-25T21:01:56.818Z,23.01
2022-08-25T21:04:26.531Z,23.09
2022-08-25T21:06:53.435Z,23.10
2022-08-25T21:09:23.028Z,23.05
2022-08-25T21:11:55.903Z,23.08
2022-08-25T21:14:24.423Z,22.94
2022-08-25T21:16:53.408Z,22.75
2022-08-25T21:19:26.393Z,22.67
2022-08-25T21:21:54.482Z,22.61
2022-08-25T21:24:27.488Z,22.55
2022-08-25T21:26:56.483Z,22.51
2022-08-25T21:29:25.396Z,22.54
2022-08-25T21:31:56.163Z,22.53
2022-08-25T21:34:23.161Z,22.52
2022-08-25T21:36:49.818Z,22.43
2022-08-25T21:39:16.973Z,22.39
2022-08-25T21:41:45.147Z,22.29
2022-08-25T21:44:13.077Z,22.25
2022-08-25T21:46:41.182Z,22.23
2022-08-25T21:49:08.635Z,22.34
2022-08-25T21:51:40.667Z,22.39
2022-08-25T21:54:11.902Z,22.40
2022-08-25T21:56:42.931Z,22.28
2022-08-25T21:59:14.039Z,22.26
2022-08-25T22:01:41.794Z,22.20
2022-08-25T22:04:10.481Z,22.15
2022-08-25T22:06:38.165Z,22.14
2022-08-25T22:09:06.683Z,22.12
2022-08-25T22:11:36.252Z,22.07
2022-08-25T22:14:05.677Z,22.04
2022-08-25T22:16:34.991Z,21.99
2022-08-25T22:19:03.237Z,21.95
2022-08-25T22:21:30.790Z,21.94
2022-08-25T22:23:58.437Z,21.92
2022-08-25T22:26:29.154Z,21.88
2022-08-25T22:28:57.571Z,21.79
2022-08-25T22:31:25.386Z,21.71
2022-08-25T22:33:52.482Z,21.72
2022-08-25T22:36:20.383Z,21.61
2022-08-25T22:38:47.625Z,21.61
2022-08-25T22:41:19.157Z,21.71
2022-08-25T22:43:51.569Z,21.65
2022-08-25T22:46:21.215Z,21.68
2022-08-25T22:48:50.360Z,21.59
2022-08-25T22:51:21.992Z,21.74
2022-08-25T22:53:49.470Z,21.77
2022-08-25T22:56:18.543Z,21.76
2022-08-25T22:58:51.519Z,21.78
2022-08-25T23:01:19.815Z,21.76
2022-08-25T23:03:47.572Z,21.73
2022-08-25T23:06:20.754Z,21.74
2022-08-25T23:08:53.690Z,21.75
2022-08-25T23:11:21.667Z,21.76
2022-08-25T23:13:48.943Z,21.69
2022-08-25T23:16:15.989Z,21.60
2022-08-25T23:18:44.732Z,21.52
2022-08-25T23:21:35.058Z,21.61
2022-08-25T23:24:02.115Z,21.47
2022-08-25T23:26:29.479Z,21.53
2022-08-25T23:28:56.350Z,21.42
2022-08-25T23:31:23.630Z,21.37
2022-08-25T23:33:51.428Z,21.44
2022-08-25T23:36:19.514Z,21.45
2022-08-25T23:38:51.492Z,21.47
2022-08-25T23:41:21.413Z,21.42
2022-08-25T23:43:50.074Z,21.33
2022-08-25T23:46:19.850Z,21.34
2022-08-25T23:48:48.787Z,21.33
2022-08-25T23:51:27.665Z,21.32
2022-08-25T23:53:56.378Z,21.27
2022-08-25T23:56:24.242Z,21.30
2022-08-25T23:58:52.187Z,21.28
